Time;durP1;ratioP1;P1;durP2;ratioP2;P2;SDS_P1;SDS_P2;PMS_P1;PMS_P2;Temp;Humidity;BMP_temperature;BMP_pressure;BME280_temperature;BME280_humidity;BME280_pressure;Samples;Min_cycle;Max_cycle;Signal;HPM_P1;HPM_P2
2021/06/11 00:02:00;;;;;;;0.40;0.40;;;9.10;99.90;;;;;;5050808;28;20464;-92
2021/06/11 00:04:27;;;;;;;0.90;0.60;;;9.10;99.90;;;;;;5054536;28;20386;-96
2021/06/11 00:06:54;;;;;;;0.55;0.52;;;9.10;99.90;;;;;;5057593;28;20384;-96
2021/06/11 00:09:21;;;;;;;0.80;0.40;;;9.30;99.90;;;;;;5056244;28;20768;-90
2021/06/11 00:11:51;;;;;;;0.40;0.40;;;9.30;99.90;;;;;;5059721;28;20461;-92
2021/06/11 00:14:18;;;;;;;0.20;0.20;;;9.40;99.90;;;;;;5073374;28;20408;-92
2021/06/11 00:16:45;;;;;;;0.20;0.20;;;9.80;99.90;;;;;;5064939;28;20491;-91
2021/06/11 00:19:12;;;;;;;0.70;0.57;;;10.40;99.90;;;;;;5062807;28;20448;-92
2021/06/11 00:21:39;;;;;;;0.20;0.20;;;11.20;99.90;;;;;;5054047;28;20403;-92
2021/06/11 00:24:06;;;;;;;1.33;0.35;;;11.30;99.90;;;;;;5051965;28;20390;-89
2021/06/11 00:26:33;;;;;;;0.38;0.32;;;11.20;99.90;;;;;;5055754;28;20894;-90
2021/06/11 00:29:00;;;;;;;0.40;0.40;;;10.90;99.90;;;;;;5053148;28;20605;-90
2021/06/11 00:31:27;;;;;;;0.20;0.20;;;10.70;99.90;;;;;;5053767;28;20411;-93
2021/06/11 00:33:54;;;;;;;0.32;0.30;;;10.40;99.90;;;;;;5055282;28;20937;-95
2021/06/11 00:36:21;;;;;;;0.50;0.30;;;10.20;99.90;;;;;;5055388;28;20399;-93
2021/06/11 00:38:49;;;;;;;1.40;0.38;;;10.10;99.90;;;;;;5055767;28;20389;-90
2021/06/11 00:41:16;;;;;;;0.20;0.20;;;10.00;99.90;;;;;;5053357;28;20461;-91
2021/06/11 00:43:43;;;;;;;0.20;0.20;;;10.00;99.90;;;;;;5055614;28;20494;-92
2021/06/11 00:46:10;;;;;;;0.20;0.20;;;9.90;99.90;;;;;;5057937;28;20403;-93
2021/06/11 00:48:37;;;;;;;1.40;0.20;;;9.90;99.90;;;;;;5042002;28;20460;-94
2021/06/11 00:51:04;;;;;;;0.10;0.10;;;9.90;99.90;;;;;;5050174;28;20414;-94
2021/06/11 00:53:31;;;;;;;1.15;0.80;;;9.90;99.90;;;;;;5057949;28;20375;-91
2021/06/11 00:55:58;;;;;;;0.43;0.30;;;10.10;99.90;;;;;;5056160;28;20399;-93
2021/06/11 00:58:25;;;;;;;0.40;0.30;;;10.10;99.90;;;;;;5058291;28;20398;-94
2021/06/11 01:00:52;;;;;;;0.10;0.10;;;10.10;99.90;;;;;;5058517;28;20383;-96
2021/06/11 01:03:19;;;;;;;1.35;0.20;;;10.20;99.90;;;;;;5056211;28;20534;-90
2021/06/11 01:05:46;;;;;;;0.20;0.20;;;10.20;99.90;;;;;;5052057;28;20380;-90
2021/06/11 01:08:16;;;;;;;0.25;0.10;;;10.20;99.90;;;;;;5046920;28;20397;-92
2021/06/11 01:10:45;;;;;;;1.45;0.20;;;10.30;99.90;;;;;;5049626;28;20411;-92
2021/06/11 01:13:15;;;;;;;0.30;0.28;;;10.30;99.90;;;;;;5053232;28;20394;-92
2021/06/11 01:15:42;;;;;;;0.40;0.20;;;10.30;99.90;;;;;;5049330;28;20490;-88
2021/06/11 01:18:10;;;;;;;0.20;0.20;;;10.40;99.90;;;;;;5051776;28;20387;-90
2021/06/11 01:20:37;;;;;;;1.55;0.45;;;10.50;99.90;;;;;;5049696;28;20400;-88
2021/06/11 01:23:43;;;;;;;1.73;0.60;;;10.70;99.90;;;;;;5053092;28;20395;-90
2021/06/11 01:26:37;;;;;;;0.20;0.20;;;10.90;99.90;;;;;;5036471;28;20782;-84
2021/06/11 01:29:20;;;;;;;0.60;0.30;;;11.10;99.90;;;;;;5042026;28;20419;-89
2021/06/11 01:31:54;;;;;;;0.45;0.40;;;11.00;99.90;;;;;;5047719;28;20415;-88
2021/06/11 01:34:37;;;;;;;0.60;0.20;;;11.00;99.90;;;;;;5045553;28;20763;-88
2021/06/11 01:37:13;;;;;;;0.75;0.30;;;11.00;99.90;;;;;;5049330;28;20442;-86
2021/06/11 01:39:42;;;;;;;1.20;0.20;;;11.10;99.90;;;;;;5051120;28;20474;-87
2021/06/11 01:42:11;;;;;;;0.35;0.15;;;11.20;99.90;;;;;;5052124;28;20371;-87
2021/06/11 01:44:40;;;;;;;0.30;0.13;;;11.10;99.90;;;;;;5050048;28;20384;-88
2021/06/11 01:47:08;;;;;;;0.90;0.20;;;11.10;99.90;;;;;;5051578;28;20391;-88
2021/06/11 01:49:36;;;;;;;0.20;0.20;;;11.10;99.90;;;;;;5051044;28;20397;-89
2021/06/11 01:52:07;;;;;;;0.30;0.30;;;11.20;99.90;;;;;;5051557;28;21049;-89
2021/06/11 01:54:36;;;;;;;0.32;0.17;;;11.30;99.90;;;;;;5051501;28;20388;-90
2021/06/11 01:57:03;;;;;;;0.10;0.10;;;11.40;99.90;;;;;;5050980;28;20469;-86
2021/06/11 01:59:31;;;;;;;1.00;0.27;;;11.40;99.90;;;;;;5052112;28;20388;-88
2021/06/11 02:01:59;;;;;;;0.47;0.30;;;11.50;99.90;;;;;;5050724;28;20478;-89
2021/06/11 02:04:27;;;;;;;0.30;0.20;;;11.60;99.90;;;;;;5050693;28;20425;-89
2021/06/11 02:06:55;;;;;;;0.28;0.20;;;11.60;99.90;;;;;;5051586;28;20380;-88
2021/06/11 02:09:23;;;;;;;0.20;0.20;;;11.70;99.90;;;;;;5050803;28;20724;-88
2021/06/11 02:11:51;;;;;;;0.60;0.20;;;11.80;99.90;;;;;;5051183;28;20447;-89
2021/06/11 02:14:21;;;;;;;2.80;0.30;;;11.90;99.90;;;;;;5050555;28;20406;-88
2021/06/11 02:16:49;;;;;;;0.38;0.20;;;12.00;99.90;;;;;;5050459;28;20395;-89
2021/06/11 02:19:20;;;;;;;0.90;0.40;;;12.00;99.90;;;;;;5050169;28;20842;-89
2021/06/11 02:21:47;;;;;;;0.50;0.20;;;12.20;99.90;;;;;;5050818;28;20399;-91
2021/06/11 02:24:14;;;;;;;0.50;0.50;;;12.30;99.90;;;;;;5051582;28;20383;-89
2021/06/11 02:26:43;;;;;;;0.20;0.20;;;12.30;99.90;;;;;;5049828;28;20456;-86
2021/06/11 02:29:11;;;;;;;1.00;0.20;;;12.30;99.90;;;;;;5049175;28;20367;-89
2021/06/11 02:31:39;;;;;;;0.93;0.40;;;12.30;99.90;;;;;;5049264;28;20398;-88
2021/06/11 02:34:07;;;;;;;0.52;0.30;;;12.40;99.90;;;;;;5047958;28;20751;-88
2021/06/11 02:36:35;;;;;;;0.22;0.10;;;12.40;99.90;;;;;;5047884;28;20391;-89
2021/06/11 02:39:03;;;;;;;0.22;0.20;;;12.50;99.90;;;;;;5050765;28;20380;-87
2021/06/11 02:41:36;;;;;;;0.25;0.25;;;12.60;99.90;;;;;;5050101;28;20466;-87
2021/06/11 02:44:05;;;;;;;1.08;0.45;;;12.70;99.90;;;;;;5051025;28;20375;-88
2021/06/11 02:46:39;;;;;;;2.40;0.30;;;12.70;99.90;;;;;;5051801;28;20399;-89
2021/06/11 02:49:35;;;;;;;0.10;0.10;;;12.80;99.90;;;;;;5049578;28;20777;-89
2021/06/11 02:52:07;;;;;;;0.30;0.30;;;12.80;99.90;;;;;;5050497;28;20387;-88
2021/06/11 02:54:41;;;;;;;0.73;0.22;;;12.90;99.90;;;;;;5050208;28;20924;-89
2021/06/11 02:57:26;;;;;;;0.20;0.20;;;12.90;99.90;;;;;;5047613;28;20407;-89
2021/06/11 02:59:59;;;;;;;0.60;0.20;;;12.90;99.90;;;;;;5048243;28;20459;-89
2021/06/11 03:02:47;;;;;;;0.32;0.22;;;12.90;99.90;;;;;;5047881;28;20441;-88
2021/06/11 03:05:20;;;;;;;0.80;0.80;;;12.80;99.90;;;;;;5049375;28;20384;-87
2021/06/11 03:07:49;;;;;;;0.40;0.20;;;12.90;99.90;;;;;;5049756;28;20390;-87
2021/06/11 03:10:20;;;;;;;0.40;0.40;;;12.90;99.90;;;;;;5050139;28;20380;-87
2021/06/11 03:12:48;;;;;;;1.00;0.30;;;12.90;99.90;;;;;;5058245;28;20895;-87
2021/06/11 03:15:15;;;;;;;0.20;0.10;;;12.80;99.90;;;;;;5069786;28;20402;-90
2021/06/11 03:17:52;;;;;;;0.40;0.10;;;12.70;99.90;;;;;;5070513;28;20455;-88
2021/06/11 03:20:25;;;;;;;0.70;0.40;;;12.70;99.90;;;;;;5068116;28;20733;-89
2021/06/11 03:23:15;;;;;;;0.95;0.30;;;12.70;99.90;;;;;;5069188;28;20780;-89
2021/06/11 03:25:51;;;;;;;0.82;0.20;;;12.90;99.90;;;;;;5036619;28;20755;-89
2021/06/11 03:28:32;;;;;;;0.30;0.20;;;13.00;99.90;;;;;;5047765;28;20907;-88
2021/06/11 03:31:02;;;;;;;0.20;0.10;;;13.20;99.90;;;;;;5048122;28;20475;-88
2021/06/11 03:33:34;;;;;;;0.90;0.10;;;13.30;99.90;;;;;;5048916;28;20384;-87
2021/06/11 03:36:16;;;;;;;0.47;0.38;;;13.40;99.90;;;;;;5048533;28;20504;-89
2021/06/11 03:38:47;;;;;;;1.70;0.20;;;13.50;99.90;;;;;;5048927;28;20375;-88
2021/06/11 03:41:16;;;;;;;0.70;0.10;;;13.70;99.90;;;;;;5049166;28;20438;-88
2021/06/11 03:43:44;;;;;;;0.63;0.30;;;13.70;99.90;;;;;;5048754;28;20371;-88
2021/06/11 03:46:13;;;;;;;0.43;0.13;;;13.60;99.90;;;;;;5048666;28;20376;-89
2021/06/11 03:48:47;;;;;;;0.22;0.10;;;13.60;99.90;;;;;;5048974;28;20403;-89
2021/06/11 03:51:15;;;;;;;0.40;0.10;;;13.50;99.90;;;;;;5048965;28;20430;-87
2021/06/11 03:53:43;;;;;;;0.45;0.10;;;13.50;99.90;;;;;;5049121;28;20928;-88
2021/06/11 03:56:12;;;;;;;0.70;0.10;;;13.50;99.90;;;;;;5048619;28;20845;-88
2021/06/11 03:58:46;;;;;;;0.40;0.20;;;13.40;99.90;;;;;;5048755;28;20376;-87
2021/06/11 04:01:24;;;;;;;0.75;0.20;;;13.40;99.90;;;;;;5047493;28;20818;-87
2021/06/11 04:03:53;;;;;;;0.38;0.10;;;13.40;99.90;;;;;;5047351;28;20402;-87
2021/06/11 04:06:32;;;;;;;0.20;0.20;;;13.40;99.90;;;;;;5048674;28;20474;-87
2021/06/11 04:09:06;;;;;;;0.30;0.20;;;13.40;99.90;;;;;;5047414;28;20474;-88
2021/06/11 04:11:37;;;;;;;1.20;0.30;;;13.40;99.90;;;;;;5049177;28;20372;-84
2021/06/11 04:14:05;;;;;;;0.30;0.20;;;13.50;99.90;;;;;;5048149;28;20411;-87
2021/06/11 04:16:42;;;;;;;0.32;0.20;;;13.40;99.90;;;;;;5048707;28;20448;-88
2021/06/11 04:19:40;;;;;;;0.35;0.20;;;13.40;99.90;;;;;;5048431;28;20364;-86
2021/06/11 04:22:08;;;;;;;0.10;0.10;;;13.50;99.90;;;;;;5048221;28;20403;-87
2021/06/11 04:24:37;;;;;;;0.20;0.20;;;13.70;99.90;;;;;;5048917;28;20372;-88
2021/06/11 04:27:06;;;;;;;1.10;0.20;;;13.80;99.90;;;;;;5049068;28;20390;-87
2021/06/11 04:29:34;;;;;;;0.93;0.30;;;14.00;99.90;;;;;;5048292;28;20478;-88
2021/06/11 04:32:01;;;;;;;0.13;0.13;;;14.10;99.90;;;;;;5048438;28;20493;-88
2021/06/11 04:34:28;;;;;;;0.22;0.20;;;14.00;99.90;;;;;;5038166;28;20402;-87
2021/06/11 04:36:56;;;;;;;0.40;0.40;;;13.90;99.90;;;;;;5007599;28;20401;-88
2021/06/11 04:39:23;;;;;;;0.50;0.30;;;13.80;99.90;;;;;;5026263;28;20379;-88
2021/06/11 04:41:50;;;;;;;1.20;0.80;;;13.80;99.90;;;;;;5035571;28;20765;-87
2021/06/11 04:44:17;;;;;;;1.20;0.43;;;13.80;99.90;;;;;;5035992;28;20371;-89
2021/06/11 04:46:45;;;;;;;0.57;0.50;;;13.70;99.90;;;;;;5014664;28;20401;-85
2021/06/11 04:49:12;;;;;;;0.70;0.30;;;13.80;99.90;;;;;;5022867;28;20392;-86
2021/06/11 04:51:39;;;;;;;4.40;3.15;;;13.70;99.90;;;;;;5025033;28;20397;-88
2021/06/11 04:54:06;;;;;;;0.30;0.30;;;13.70;99.90;;;;;;5009842;28;20391;-85
2021/06/11 04:56:33;;;;;;;0.60;0.25;;;13.70;99.90;;;;;;4995049;28;20407;-86
2021/06/11 04:59:02;;;;;;;1.40;0.45;;;13.60;99.90;;;;;;5012933;28;20387;-86
2021/06/11 05:01:29;;;;;;;0.20;0.20;;;13.70;99.90;;;;;;5030103;28;20897;-88
2021/06/11 05:03:56;;;;;;;0.60;0.40;;;13.70;99.90;;;;;;5045991;28;20966;-87
2021/06/11 05:06:23;;;;;;;0.20;0.20;;;13.60;99.90;;;;;;5034770;28;20408;-86
2021/06/11 05:08:50;;;;;;;0.20;0.13;;;13.60;99.90;;;;;;5030821;28;20400;-88
2021/06/11 05:11:18;;;;;;;1.85;0.30;;;13.50;99.90;;;;;;5032737;28;20404;-88
2021/06/11 05:13:45;;;;;;;0.43;0.30;;;13.50;99.90;;;;;;5034420;28;20398;-85
2021/06/11 05:16:12;;;;;;;0.65;0.40;;;13.50;99.90;;;;;;5032815;28;20504;-86
2021/06/11 05:18:39;;;;;;;0.30;0.30;;;13.50;99.90;;;;;;5023572;28;20377;-88
2021/06/11 05:21:06;;;;;;;1.00;0.50;;;13.40;99.90;;;;;;5029421;28;20404;-87
2021/06/11 05:23:33;;;;;;;0.50;0.40;;;13.40;99.90;;;;;;5034594;28;20387;-87
2021/06/11 05:26:00;;;;;;;0.70;0.40;;;13.40;99.90;;;;;;5019369;28;20400;-89
2021/06/11 05:28:27;;;;;;;0.73;0.60;;;13.40;99.90;;;;;;5031553;28;20904;-90
2021/06/11 05:30:55;;;;;;;0.50;0.50;;;13.40;99.90;;;;;;5030107;28;20378;-89
2021/06/11 05:33:23;;;;;;;1.83;0.73;;;13.40;99.90;;;;;;5035400;28;20391;-84
2021/06/11 05:35:51;;;;;;;0.80;0.60;;;13.40;99.90;;;;;;5050638;28;20430;-86
2021/06/11 05:38:19;;;;;;;0.60;0.32;;;13.40;99.90;;;;;;5050762;28;20457;-87
2021/06/11 05:40:46;;;;;;;1.70;0.40;;;13.30;99.90;;;;;;5051026;28;20376;-87
2021/06/11 05:43:13;;;;;;;1.52;0.30;;;13.30;99.90;;;;;;5051031;28;20466;-87
2021/06/11 05:45:40;;;;;;;0.80;0.40;;;13.20;99.90;;;;;;5050796;28;20440;-87
2021/06/11 05:48:08;;;;;;;0.30;0.30;;;13.20;99.90;;;;;;5051245;28;20414;-87
2021/06/11 05:50:35;;;;;;;2.73;0.37;;;13.20;99.90;;;;;;5050921;28;20376;-87
2021/06/11 05:53:02;;;;;;;1.77;0.40;;;13.10;99.90;;;;;;5049647;28;20407;-87
2021/06/11 05:55:29;;;;;;;0.52;0.52;;;13.10;99.90;;;;;;5050983;28;20423;-86
2021/06/11 05:57:57;;;;;;;1.10;0.45;;;13.10;99.90;;;;;;5049695;28;20398;-86
2021/06/11 06:00:24;;;;;;;0.50;0.30;;;13.00;99.90;;;;;;5053068;28;20384;-86
2021/06/11 06:02:52;;;;;;;1.83;0.47;;;13.00;99.90;;;;;;5048782;28;20910;-87
2021/06/11 06:05:19;;;;;;;0.45;0.45;;;13.00;99.90;;;;;;5049487;28;20439;-87
2021/06/11 06:07:46;;;;;;;0.60;0.40;;;13.00;99.90;;;;;;5046531;28;20963;-86
2021/06/11 06:10:14;;;;;;;1.70;0.70;;;13.00;99.90;;;;;;5049922;28;20431;-89
2021/06/11 06:12:41;;;;;;;1.55;0.50;;;12.90;99.90;;;;;;5049122;28;20388;-87
2021/06/11 06:15:08;;;;;;;0.70;0.57;;;12.90;99.90;;;;;;5050021;28;20400;-84
2021/06/11 06:17:36;;;;;;;1.95;0.70;;;12.90;99.90;;;;;;5051244;28;20457;-86
2021/06/11 06:20:08;;;;;;;0.60;0.60;;;12.80;99.90;;;;;;5042491;28;20744;-86
2021/06/11 06:22:36;;;;;;;1.50;0.60;;;12.80;99.90;;;;;;5054098;28;20387;-93
2021/06/11 06:25:05;;;;;;;1.75;1.65;;;12.70;99.90;;;;;;5056150;28;20481;-88
2021/06/11 06:27:32;;;;;;;15.15;10.25;;;12.70;99.90;;;;;;5050789;28;20419;-88
2021/06/11 06:29:59;;;;;;;13.32;9.23;;;12.70;99.90;;;;;;5042848;28;21013;-90
2021/06/11 06:32:30;;;;;;;6.78;4.90;;;12.70;99.90;;;;;;5050539;28;20368;-87
2021/06/11 06:35:00;;;;;;;4.60;2.33;;;12.70;99.90;;;;;;5047334;28;20412;-85
2021/06/11 06:37:28;;;;;;;0.98;0.98;;;12.70;99.90;;;;;;5049095;28;20479;-87
2021/06/11 06:39:55;;;;;;;1.20;1.10;;;12.60;99.90;;;;;;5052612;28;20407;-91
2021/06/11 06:42:22;;;;;;;0.80;0.75;;;12.50;99.90;;;;;;5053145;28;20391;-90
2021/06/11 06:44:50;;;;;;;1.85;0.80;;;12.50;99.90;;;;;;5049992;28;20419;-89
2021/06/11 06:47:17;;;;;;;0.80;0.70;;;12.40;99.90;;;;;;5032334;28;20388;-87
2021/06/11 06:49:44;;;;;;;1.00;0.60;;;12.30;99.90;;;;;;5050685;28;20380;-86
2021/06/11 06:52:13;;;;;;;0.50;0.50;;;12.20;99.90;;;;;;5044208;28;20392;-87
2021/06/11 06:54:41;;;;;;;0.70;0.70;;;12.20;99.90;;;;;;5047157;28;20431;-85
2021/06/11 06:57:09;;;;;;;1.20;0.65;;;12.10;99.90;;;;;;5047081;28;20395;-84
2021/06/11 06:59:36;;;;;;;2.60;0.70;;;12.00;99.90;;;;;;5049845;28;20884;-87
2021/06/11 07:02:03;;;;;;;0.90;0.80;;;12.00;99.90;;;;;;5035706;28;20420;-88
2021/06/11 07:04:31;;;;;;;1.27;0.77;;;11.90;99.90;;;;;;5045315;28;20406;-87
2021/06/11 07:06:58;;;;;;;3.90;0.70;;;11.90;99.90;;;;;;5048257;28;20402;-86
2021/06/11 07:09:26;;;;;;;1.70;0.80;;;11.90;99.90;;;;;;5047188;28;20500;-86
2021/06/11 07:11:53;;;;;;;0.63;0.60;;;11.90;99.90;;;;;;5050710;28;20392;-86
2021/06/11 07:14:23;;;;;;;0.70;0.50;;;12.00;99.90;;;;;;5045213;28;20388;-86
2021/06/11 07:16:51;;;;;;;0.65;0.50;;;12.00;99.90;;;;;;5044346;28;20405;-87
2021/06/11 07:19:17;;;;;;;1.40;0.60;;;12.00;99.90;;;;;;5038728;28;20399;-87
2021/06/11 07:21:44;;;;;;;0.82;0.50;;;12.10;99.90;;;;;;5045027;28;20422;-91
2021/06/11 07:24:12;;;;;;;0.88;0.60;;;12.10;99.90;;;;;;5047242;28;20905;-87
2021/06/11 07:26:39;;;;;;;1.85;0.57;;;12.20;99.90;;;;;;5046212;28;20404;-84
2021/06/11 07:29:06;;;;;;;2.28;0.60;;;12.20;99.90;;;;;;5047232;28;20395;-86
2021/06/11 07:31:33;;;;;;;0.90;0.50;;;12.20;99.90;;;;;;5044296;28;20470;-86
2021/06/11 07:34:00;;;;;;;1.00;0.60;;;12.20;99.90;;;;;;5047798;28;20928;-86
2021/06/11 07:36:28;;;;;;;1.08;0.47;;;12.20;99.90;;;;;;5046958;28;20420;-84
2021/06/11 07:38:55;;;;;;;1.05;0.50;;;12.20;99.90;;;;;;5048240;28;20384;-83
2021/06/11 07:41:23;;;;;;;0.47;0.40;;;12.20;99.90;;;;;;5077039;28;20459;-84
2021/06/11 07:43:50;;;;;;;1.95;0.50;;;12.20;99.90;;;;;;5064627;28;20387;-84
2021/06/11 07:46:20;;;;;;;1.20;1.10;;;12.20;99.90;;;;;;5031605;28;20403;-85
2021/06/11 07:48:49;;;;;;;0.90;0.63;;;12.20;99.90;;;;;;5049850;28;20408;-86
2021/06/11 07:51:16;;;;;;;1.30;0.68;;;12.20;99.90;;;;;;5055995;28;20419;-87
2021/06/11 07:53:43;;;;;;;1.52;0.60;;;12.20;99.90;;;;;;5050029;28;20902;-87
2021/06/11 07:56:11;;;;;;;0.75;0.75;;;12.20;99.90;;;;;;5050017;28;20438;-91
2021/06/11 07:58:38;;;;;;;0.90;0.70;;;12.20;99.90;;;;;;5050678;28;20482;-91
2021/06/11 08:01:05;;;;;;;2.70;0.77;;;12.10;99.90;;;;;;5047720;28;20434;-88
2021/06/11 08:03:32;;;;;;;1.75;0.77;;;12.10;99.90;;;;;;5047701;28;20467;-90
2021/06/11 08:05:59;;;;;;;1.75;0.85;;;12.00;99.90;;;;;;5040706;28;20380;-89
2021/06/11 08:08:26;;;;;;;1.73;1.30;;;12.00;99.90;;;;;;5061162;28;20370;-89
2021/06/11 08:10:54;;;;;;;1.98;0.90;;;11.90;99.90;;;;;;5046743;28;20396;-90
2021/06/11 08:13:21;;;;;;;1.08;0.85;;;11.90;99.90;;;;;;5049253;28;20467;-86
2021/06/11 08:15:49;;;;;;;1.60;0.90;;;11.80;99.90;;;;;;5047863;28;20411;-86
2021/06/11 08:18:16;;;;;;;2.05;1.00;;;11.80;99.90;;;;;;5051418;28;20384;-85
2021/06/11 08:20:43;;;;;;;0.90;0.90;;;11.70;99.90;;;;;;5056474;28;20430;-89
2021/06/11 08:23:10;;;;;;;2.05;1.33;;;11.50;99.90;;;;;;5071605;28;20396;-90
2021/06/11 08:25:37;;;;;;;2.20;1.23;;;11.40;99.90;;;;;;5082702;28;20432;-90
2021/06/11 08:28:06;;;;;;;2.63;1.00;;;11.40;99.90;;;;;;5050594;28;20392;-90
2021/06/11 08:30:33;;;;;;;1.47;0.90;;;11.20;99.90;;;;;;5050820;28;20391;-88
2021/06/11 08:33:00;;;;;;;1.15;1.02;;;11.20;99.90;;;;;;5051387;28;20396;-88
2021/06/11 08:35:29;;;;;;;1.58;1.20;;;11.10;99.90;;;;;;5053916;28;20509;-89
2021/06/11 08:37:56;;;;;;;2.72;1.10;;;11.10;99.90;;;;;;5054695;28;20518;-88
2021/06/11 08:40:26;;;;;;;1.45;1.00;;;11.00;99.90;;;;;;5054890;28;20392;-89
2021/06/11 08:42:54;;;;;;;1.27;1.05;;;10.90;99.90;;;;;;5057931;28;20408;-89
2021/06/11 08:45:22;;;;;;;1.23;0.75;;;10.80;99.90;;;;;;5052130;28;20379;-88
2021/06/11 08:47:54;;;;;;;1.20;0.90;;;10.80;99.90;;;;;;5051265;28;21025;-88
2021/06/11 08:50:27;;;;;;;1.50;1.00;;;10.70;99.90;;;;;;5050779;28;20485;-86
2021/06/11 08:52:58;;;;;;;1.20;0.80;;;10.70;99.90;;;;;;5069635;28;20874;-86
2021/06/11 08:55:26;;;;;;;0.80;0.80;;;10.70;99.90;;;;;;5045068;28;20407;-85
2021/06/11 08:57:54;;;;;;;1.17;0.88;;;10.60;99.90;;;;;;5050602;28;20744;-85
2021/06/11 09:00:22;;;;;;;1.48;0.88;;;10.60;99.90;;;;;;5051771;28;20462;-86
2021/06/11 09:03:08;;;;;;;0.77;0.70;;;10.50;99.90;;;;;;5067140;28;20367;-85
2021/06/11 09:05:36;;;;;;;2.42;0.85;;;10.50;99.90;;;;;;5052223;28;20395;-87
2021/06/11 09:08:20;;;;;;;1.15;0.80;;;10.40;99.90;;;;;;5044995;28;20407;-84
2021/06/11 09:10:54;;;;;;;1.30;0.70;;;10.40;99.90;;;;;;5048391;28;20431;-87
2021/06/11 09:13:29;;;;;;;1.30;0.80;;;10.30;99.90;;;;;;5042798;28;20379;-88
2021/06/11 09:16:17;;;;;;;0.63;0.60;;;10.30;99.90;;;;;;5053145;28;20403;-87
2021/06/11 09:18:53;;;;;;;0.80;0.60;;;10.30;99.90;;;;;;5050825;28;20372;-86
2021/06/11 09:21:58;;;;;;;0.60;0.55;;;10.30;99.90;;;;;;5042961;28;20400;-86
2021/06/11 09:24:27;;;;;;;1.20;1.00;;;10.30;99.90;;;;;;5050855;28;20394;-88
2021/06/11 09:27:06;;;;;;;2.22;1.00;;;10.30;99.90;;;;;;5056251;28;20395;-86
2021/06/11 09:29:38;;;;;;;1.60;1.15;;;10.20;99.90;;;;;;5049074;28;20396;-86
2021/06/11 09:32:17;;;;;;;1.98;1.30;;;10.20;99.90;;;;;;5044613;28;20429;-86
2021/06/11 09:34:47;;;;;;;4.05;1.70;;;10.20;99.90;;;;;;5037246;28;20414;-85
2021/06/11 09:37:19;;;;;;;1.25;1.10;;;10.10;99.90;;;;;;5056787;28;21223;-87
2021/06/11 09:39:48;;;;;;;1.77;0.98;;;10.10;99.90;;;;;;5044382;28;20461;-85
2021/06/11 09:42:27;;;;;;;1.15;0.90;;;10.10;99.90;;;;;;5045603;28;20400;-86
2021/06/11 09:45:03;;;;;;;1.08;1.00;;;10.10;99.90;;;;;;5043529;28;20396;-91
2021/06/11 09:47:31;;;;;;;2.55;1.02;;;10.10;99.90;;;;;;5038231;28;20453;-86
2021/06/11 09:50:21;;;;;;;1.10;1.00;;;10.10;99.90;;;;;;5047054;28;20375;-85
2021/06/11 09:53:08;;;;;;;1.58;1.45;;;10.10;99.90;;;;;;5045857;28;20408;-85
2021/06/11 09:55:41;;;;;;;1.90;1.23;;;10.00;99.90;;;;;;5048160;28;20494;-88
2021/06/11 09:58:10;;;;;;;1.52;1.42;;;10.00;99.90;;;;;;5044242;28;20388;-84
2021/06/11 10:00:54;;;;;;;1.40;1.15;;;9.90;99.90;;;;;;5045785;28;20514;-85
2021/06/11 10:03:31;;;;;;;1.42;1.33;;;9.90;99.90;;;;;;5042372;28;20452;-86
2021/06/11 10:06:04;;;;;;;2.78;1.30;;;9.80;99.90;;;;;;5043358;28;21424;-84
2021/06/11 10:08:31;;;;;;;1.20;1.10;;;9.80;99.90;;;;;;5045259;28;20438;-85
2021/06/11 10:11:01;;;;;;;1.25;1.15;;;9.70;99.90;;;;;;5043870;28;20379;-85
2021/06/11 10:13:29;;;;;;;0.90;0.85;;;9.70;99.90;;;;;;5042221;28;20400;-86
2021/06/11 10:15:59;;;;;;;0.93;0.82;;;9.70;99.90;;;;;;5045281;28;20419;-86
2021/06/11 10:18:26;;;;;;;0.95;0.90;;;9.70;99.90;;;;;;5045882;28;20393;-85
2021/06/11 10:20:53;;;;;;;1.23;0.90;;;9.60;99.90;;;;;;5044863;28;20423;-85
2021/06/11 10:23:25;;;;;;;1.15;1.00;;;9.60;99.90;;;;;;5045315;28;20471;-89
2021/06/11 10:25:56;;;;;;;1.05;1.05;;;9.60;99.90;;;;;;5042401;28;20392;-90
2021/06/11 10:28:30;;;;;;;1.20;1.10;;;9.50;99.90;;;;;;5046028;28;20403;-88
2021/06/11 10:30:59;;;;;;;1.20;1.10;;;9.50;99.90;;;;;;5049091;28;20395;-88
2021/06/11 10:33:44;;;;;;;1.80;1.00;;;9.50;99.90;;;;;;5047252;28;21129;-89
2021/06/11 10:36:47;;;;;;;0.80;0.80;;;9.50;99.90;;;;;;5057904;28;20458;-88
2021/06/11 10:39:13;;;;;;;1.05;1.05;;;9.40;99.90;;;;;;5047331;28;20410;-90
2021/06/11 10:41:57;;;;;;;1.47;0.83;;;9.40;99.90;;;;;;5050742;28;21161;-91
2021/06/11 10:44:34;;;;;;;0.60;0.60;;;9.40;99.90;;;;;;5048163;28;20399;-88
2021/06/11 10:47:16;;;;;;;1.53;0.80;;;9.30;99.90;;;;;;5045096;28;20403;-88
2021/06/11 10:50:01;;;;;;;1.20;0.70;;;9.30;99.90;;;;;;5045319;28;20390;-87
2021/06/11 10:52:41;;;;;;;1.70;1.00;;;9.30;99.90;;;;;;5038976;28;20404;-88
2021/06/11 10:55:15;;;;;;;2.30;1.20;;;9.30;99.90;;;;;;5046006;28;20415;-88
2021/06/11 10:57:45;;;;;;;1.10;1.00;;;9.20;99.90;;;;;;5047817;28;20391;-89
2021/06/11 11:00:27;;;;;;;1.45;1.00;;;9.10;99.90;;;;;;5033361;28;20970;-87
2021/06/11 11:02:58;;;;;;;1.30;1.20;;;9.10;99.90;;;;;;5041443;28;21063;-89
2021/06/11 11:05:27;;;;;;;3.30;1.48;;;9.10;99.90;;;;;;5048093;28;20402;-86
2021/06/11 11:07:54;;;;;;;1.35;1.25;;;9.10;99.90;;;;;;5050650;28;20371;-90
2021/06/11 11:10:45;;;;;;;1.33;0.98;;;9.10;99.90;;;;;;5044119;28;20396;-87
2021/06/11 11:13:14;;;;;;;2.00;1.00;;;9.00;99.90;;;;;;5044512;28;20377;-89
2021/06/11 11:15:49;;;;;;;0.90;0.83;;;9.00;99.90;;;;;;5039126;28;20448;-90
2021/06/11 11:18:39;;;;;;;0.70;0.70;;;8.90;99.90;;;;;;5041471;28;20541;-87
2021/06/11 11:21:39;;;;;;;1.65;0.80;;;8.90;99.90;;;;;;5025132;28;20411;-89
2021/06/11 11:24:09;;;;;;;0.90;0.80;;;8.90;99.90;;;;;;5032276;28;20397;-87
2021/06/11 11:26:43;;;;;;;1.13;0.90;;;8.90;99.90;;;;;;5045031;28;20407;-90
2021/06/11 11:29:11;;;;;;;1.10;1.00;;;8.90;99.90;;;;;;5042918;28;20384;-87
2021/06/11 11:31:40;;;;;;;1.80;1.10;;;8.90;99.90;;;;;;5046195;28;20392;-90
2021/06/11 11:34:07;;;;;;;1.48;1.38;;;8.90;99.90;;;;;;5046150;28;20436;-87
2021/06/11 11:36:35;;;;;;;1.65;0.98;;;8.90;99.90;;;;;;5045197;28;20861;-88
2021/06/11 11:39:12;;;;;;;1.08;0.98;;;8.80;99.90;;;;;;5050975;28;20391;-88
2021/06/11 11:41:41;;;;;;;1.17;0.90;;;8.70;99.90;;;;;;5042923;28;20913;-88
2021/06/11 11:44:08;;;;;;;3.28;1.00;;;8.70;99.90;;;;;;5042142;28;20390;-88
2021/06/11 11:46:35;;;;;;;1.30;0.88;;;8.70;99.90;;;;;;5047376;28;20755;-88
2021/06/11 11:49:02;;;;;;;0.85;0.85;;;8.70;99.90;;;;;;5046205;28;20956;-86
2021/06/11 11:51:29;;;;;;;1.30;1.20;;;8.60;99.90;;;;;;5047680;28;20444;-87
2021/06/11 11:53:56;;;;;;;1.55;1.08;;;8.50;99.90;;;;;;5047790;28;20406;-89
2021/06/11 11:56:23;;;;;;;1.07;1.00;;;8.50;99.90;;;;;;5047874;28;20412;-89
2021/06/11 11:58:50;;;;;;;1.00;0.80;;;8.50;99.90;;;;;;5051609;28;20383;-88
2021/06/11 12:01:17;;;;;;;2.40;1.10;;;8.40;99.90;;;;;;5047775;28;20396;-88
2021/06/11 12:03:44;;;;;;;1.25;0.90;;;8.40;99.90;;;;;;5052499;28;20396;-87
2021/06/11 12:06:11;;;;;;;1.33;1.05;;;8.40;99.90;;;;;;5048257;28;20398;-88
2021/06/11 12:08:38;;;;;;;0.98;0.98;;;8.40;99.90;;;;;;5049146;28;21209;-89
2021/06/11 12:11:05;;;;;;;1.17;1.10;;;8.30;99.90;;;;;;5051773;28;20399;-89
2021/06/11 12:13:33;;;;;;;1.27;1.17;;;8.30;99.90;;;;;;5051838;28;20395;-89
2021/06/11 12:16:02;;;;;;;2.20;1.80;;;8.30;99.90;;;;;;5050085;28;20408;-89
2021/06/11 12:18:30;;;;;;;1.40;1.30;;;8.20;99.90;;;;;;5049843;28;20469;-89
2021/06/11 12:20:57;;;;;;;1.98;1.40;;;8.10;99.90;;;;;;5055729;28;20408;-90
2021/06/11 12:23:24;;;;;;;2.30;1.40;;;8.10;99.90;;;;;;5053262;28;20394;-89
2021/06/11 12:25:51;;;;;;;2.50;1.10;;;8.10;99.90;;;;;;5045051;28;20452;-88
2021/06/11 12:28:18;;;;;;;1.88;0.90;;;8.10;99.90;;;;;;5049032;28;20915;-87
2021/06/11 12:30:47;;;;;;;0.93;0.90;;;8.10;99.90;;;;;;5050764;28;20422;-90
2021/06/11 12:33:14;;;;;;;0.98;0.90;;;8.10;99.90;;;;;;5052201;28;20474;-88
2021/06/11 12:35:41;;;;;;;1.60;0.75;;;8.10;99.90;;;;;;5053707;28;20447;-93
2021/06/11 12:38:08;;;;;;;1.33;1.00;;;8.20;99.90;;;;;;5039701;28;20473;-92
2021/06/11 12:40:38;;;;;;;1.50;1.40;;;8.20;99.90;;;;;;5057666;28;20478;-90
2021/06/11 12:43:07;;;;;;;1.50;1.30;;;8.20;99.90;;;;;;5057891;28;20474;-89
2021/06/11 12:45:36;;;;;;;7.22;4.32;;;8.20;99.90;;;;;;5059674;28;20383;-89
2021/06/11 12:48:03;;;;;;;7.57;5.70;;;8.20;99.90;;;;;;5055630;28;20407;-85
2021/06/11 12:50:30;;;;;;;2.60;2.30;;;8.10;99.90;;;;;;5059409;28;20435;-91
2021/06/11 12:52:59;;;;;;;1.95;1.48;;;8.00;99.90;;;;;;5059643;28;20403;-90
2021/06/11 12:55:26;;;;;;;2.42;1.92;;;8.00;99.90;;;;;;5060567;28;21063;-90
2021/06/11 12:57:53;;;;;;;1.33;1.20;;;7.90;99.90;;;;;;5064584;28;20396;-89
2021/06/11 13:00:20;;;;;;;1.40;1.20;;;7.90;99.90;;;;;;5056221;28;20402;-85
2021/06/11 13:02:47;;;;;;;1.40;1.30;;;7.90;99.90;;;;;;5059272;28;20458;-90
2021/06/11 13:05:15;;;;;;;1.50;1.40;;;7.90;99.90;;;;;;5065557;28;20400;-89
2021/06/11 13:07:42;;;;;;;1.50;1.40;;;7.90;99.90;;;;;;5061145;28;20475;-92